createdAt,value
2022-11-12T00:06:15.925Z,4.6
2022-11-12T00:12:38.924Z,4.4
2022-11-12T00:18:59.223Z,4.4
2022-11-12T00:25:22.094Z,4.6
2022-11-12T00:31:41.973Z,4.6
2022-11-12T00:38:05.016Z,8.2
2022-11-12T00:44:25.094Z,8.2
2022-11-12T00:50:47.980Z,8.6
2022-11-12T00:57:07.999Z,8.6
2022-11-12T01:03:30.944Z,5.9
2022-11-12T01:09:50.888Z,5.9
2022-11-12T01:16:14.045Z,6.2
2022-11-12T01:22:34.008Z,6.2
2022-11-12T01:28:57.096Z,20.4
2022-11-12T01:35:17.122Z,20.4
2022-11-12T01:41:39.975Z,7.5
2022-11-12T01:47:59.944Z,7.5
2022-11-12T01:54:23.141Z,3.9
2022-11-12T02:00:43.191Z,3.9
2022-11-12T02:07:05.990Z,9.1
2022-11-12T02:13:26.207Z,9.1
2022-11-12T02:19:49.014Z,11.8
2022-11-12T02:26:09.060Z,11.8
2022-11-12T02:32:32.079Z,7.8
2022-11-12T02:38:52.034Z,7.8
2022-11-12T02:45:14.970Z,10.6
2022-11-12T02:51:35.036Z,10.6
2022-11-12T02:57:57.887Z,9.1
2022-11-12T03:04:17.954Z,9.1
2022-11-12T03:10:41.166Z,18.6
2022-11-12T03:17:00.952Z,18.6
2022-11-12T03:23:24.186Z,8.4
2022-11-12T03:29:44.090Z,8.4
2022-11-12T03:36:06.975Z,9
2022-11-12T03:42:26.918Z,9
2022-11-12T03:48:50.263Z,8.3
2022-11-12T03:55:09.943Z,8.3
2022-11-12T04:01:40.377Z,15
2022-11-12T04:08:00.048Z,15
2022-11-12T04:24:45.687Z,9.7
2022-11-12T04:31:05.916Z,9.7
2022-11-12T04:37:28.923Z,15.5
2022-11-12T04:43:49.175Z,15.5
2022-11-12T04:50:11.990Z,15.5
2022-11-12T04:56:32.037Z,15.5
2022-11-12T05:02:55.179Z,4.7
2022-11-12T05:09:15.002Z,4.7
2022-11-12T05:15:37.989Z,7
2022-11-12T05:21:58.122Z,7
2022-11-12T05:28:21.011Z,6
2022-11-12T05:34:40.885Z,6
2022-11-12T05:41:04.171Z,6.6
2022-11-12T05:47:23.932Z,6.6
2022-11-12T05:53:46.887Z,10
2022-11-12T06:00:07.042Z,10
2022-11-12T06:06:30.022Z,5.2
2022-11-12T06:12:49.970Z,5.2
2022-11-12T06:19:13.110Z,12.7
2022-11-12T06:25:32.886Z,12.7
2022-11-12T06:31:55.941Z,7.7
2022-11-12T06:38:16.138Z,7.7
2022-11-12T06:44:39.035Z,7
2022-11-12T06:50:59.110Z,7
2022-11-12T06:57:22.101Z,6.9
2022-11-12T07:03:42.074Z,6.9
2022-11-12T07:10:04.986Z,39.3
2022-11-12T07:16:25.099Z,39.3
2022-11-12T07:22:48.029Z,15.2
2022-11-12T07:29:07.945Z,15.2
2022-11-12T07:35:31.048Z,12.8
2022-11-12T07:41:50.896Z,12.8
2022-11-12T07:48:13.994Z,8.4
2022-11-12T07:54:34.139Z,8.4
2022-11-12T08:00:57.032Z,8.4
2022-11-12T08:07:17.291Z,8.4
2022-11-12T08:13:40.184Z,3.9
2022-11-12T08:20:00.036Z,3.9
2022-11-12T08:26:23.114Z,9.1
2022-11-12T08:32:43.104Z,9.1
2022-11-12T08:39:06.022Z,9.4
2022-11-12T08:45:25.971Z,9.4
2022-11-12T08:51:49.023Z,6.2
2022-11-12T08:58:08.988Z,6.2
2022-11-12T09:04:31.967Z,9.2
2022-11-12T09:27:38.918Z,5.2
2022-11-12T09:33:58.900Z,5.2
2022-11-12T09:40:21.979Z,5.6
2022-11-12T09:46:42.113Z,5.6
2022-11-12T09:53:04.942Z,2.8
2022-11-12T09:59:24.960Z,2.8
2022-11-12T10:05:48.038Z,4.8
2022-11-12T10:12:07.973Z,4.8
2022-11-12T10:18:30.932Z,8.7
2022-11-12T10:24:51.057Z,8.7
2022-11-12T10:31:13.985Z,4.9
2022-11-12T10:37:33.921Z,4.9
2022-11-12T10:43:57.089Z,4.1
2022-11-12T10:50:16.949Z,4.1
2022-11-12T10:56:39.981Z,5.7
2022-11-12T11:03:00.094Z,5.7
2022-11-12T11:09:22.921Z,5.4
2022-11-12T11:15:42.914Z,5.4
2022-11-12T11:22:06.074Z,5.4
2022-11-12T11:28:26.172Z,5.4
2022-11-12T11:34:48.973Z,3.3
2022-11-12T11:41:09.032Z,3.3
2022-11-12T11:47:44.055Z,4.2
2022-11-12T11:53:51.938Z,4.2
2022-11-12T12:00:15.060Z,5.9
2022-11-12T12:06:35.101Z,5.9
2022-11-12T12:12:57.916Z,4.8
2022-11-12T12:19:18.090Z,4.8
2022-11-12T12:25:40.960Z,6.2
2022-11-12T12:32:00.904Z,6.2
2022-11-12T12:38:24.265Z,3.3
2022-11-12T12:44:43.915Z,3.3
2022-11-12T12:51:06.903Z,3.4
2022-11-12T12:57:27.028Z,3.4
2022-11-12T13:03:49.897Z,2.3
2022-11-12T13:10:09.897Z,2.3
2022-11-12T13:16:33.077Z,2.9
2022-11-12T13:22:52.879Z,2.9
2022-11-12T13:29:15.890Z,3.3
2022-11-12T13:35:36.019Z,3.3
2022-11-12T13:41:58.930Z,3.1
2022-11-12T13:48:18.911Z,3.1
2022-11-12T13:54:42.018Z,3.7
2022-11-12T14:01:01.987Z,3.7
2022-11-12T14:07:24.932Z,2.4
2022-11-12T14:13:45.047Z,2.4
2022-11-12T14:20:07.898Z,3.4
2022-11-12T14:26:27.891Z,3.4
2022-11-12T14:32:51.049Z,1.9
2022-11-12T14:39:10.881Z,1.9
2022-11-12T14:45:35.366Z,3.4
2022-11-12T14:51:54.012Z,3.4
2022-11-12T14:58:16.887Z,1.5
2022-11-12T15:04:36.929Z,1.5
2022-11-12T15:27:24.945Z,4.9
2022-11-12T15:33:44.889Z,4.9
2022-11-12T15:40:07.893Z,8
2022-11-12T15:46:28.246Z,8
2022-11-12T15:52:50.893Z,1.5
2022-11-12T15:59:10.963Z,1.5
2022-11-12T16:05:34.308Z,1.9
2022-11-12T16:11:53.924Z,1.9
2022-11-12T16:18:16.920Z,3.3
2022-11-12T16:24:37.057Z,3.3
2022-11-12T16:31:00.025Z,2.5
2022-11-12T16:37:19.978Z,2.5
2022-11-12T16:43:43.056Z,1.7
2022-11-12T16:50:02.997Z,1.7
2022-11-12T16:56:25.902Z,2.9
2022-11-12T17:02:49.442Z,2.9
2022-11-12T17:09:08.979Z,1.9
2022-11-12T17:15:28.955Z,1.9
2022-11-12T17:21:52.043Z,2.6
2022-11-12T17:28:12.135Z,2.6
2022-11-12T17:34:34.992Z,3.4
2022-11-12T17:40:55.031Z,3.4
2022-11-12T17:47:17.961Z,4.7
2022-11-12T17:53:37.907Z,4.7
2022-11-12T18:00:01.036Z,1.2
2022-11-12T18:06:20.978Z,1.2
2022-11-12T18:12:43.918Z,8.6
2022-11-12T18:19:04.092Z,8.6
2022-11-12T18:25:26.983Z,4.6
2022-11-12T18:31:46.905Z,4.6
2022-11-12T18:38:10.192Z,6.2
2022-11-12T18:44:29.993Z,6.2
2022-11-12T18:50:52.952Z,2.5
2022-11-12T18:57:13.477Z,2.5
2022-11-12T19:03:36.264Z,7.5
2022-11-12T19:09:56.466Z,7.5
2022-11-12T19:16:19.082Z,3.7
2022-11-12T19:22:38.998Z,3.7
2022-11-12T19:29:01.917Z,8.1
2022-11-12T19:35:22.197Z,8.1
2022-11-12T19:41:45.018Z,5.4
2022-11-12T19:48:04.996Z,5.4
2022-11-12T19:54:28.097Z,5.4
2022-11-12T20:00:48.358Z,5.4
2022-11-12T20:07:10.987Z,21.3
2022-11-12T20:13:31.183Z,21.3
2022-11-12T20:30:46.684Z,13.2
2022-11-12T20:37:06.885Z,13.2
2022-11-12T20:43:29.917Z,17.4
2022-11-12T20:49:50.046Z,17.4
2022-11-12T20:56:12.992Z,5.1
2022-11-12T21:02:32.911Z,5.1
2022-11-12T21:08:56.129Z,4.7
2022-11-12T21:15:15.934Z,4.7
2022-11-12T21:21:39.052Z,6
2022-11-12T21:27:59.065Z,6
2022-11-12T21:34:22.012Z,6.5
2022-11-12T21:40:41.951Z,6.5
2022-11-12T21:47:05.052Z,12.3
2022-11-12T21:53:24.974Z,12.3
2022-11-12T21:59:47.920Z,9.1
2022-11-12T22:06:08.070Z,9.1
2022-11-12T22:12:30.973Z,11.6
2022-11-12T22:18:50.927Z,11.6
2022-11-12T22:25:14.134Z,8.2
2022-11-12T22:31:33.937Z,8.2
2022-11-12T22:37:56.922Z,10.8
2022-11-12T22:44:17.122Z,10.8
2022-11-12T22:50:39.997Z,7.4
2022-11-12T22:56:59.984Z,7.4
2022-11-12T23:22:34.039Z,15.8
2022-11-12T23:28:53.875Z,15.8
2022-11-12T23:35:16.918Z,15.8
2022-11-12T23:41:36.984Z,15.8
2022-11-12T23:47:59.909Z,4.8
2022-11-12T23:54:20.079Z,4.8
